sensor_id;sensor_type;location;lat;lon;timestamp;P1;durP1;ratioP1;P2;durP2;ratioP2
10667;SDS011;5382;42.136;24.796;2024-01-30T00:01:58;2.47;;;2.25;;
10667;SDS011;5382;42.136;24.796;2024-01-30T00:04:25;3.17;;;2.25;;
10667;SDS011;5382;42.136;24.796;2024-01-30T00:06:52;3.28;;;2.15;;
10667;SDS011;5382;42.136;24.796;2024-01-30T00:09:20;3.00;;;2.65;;
10667;SDS011;5382;42.136;24.796;2024-01-30T00:11:47;2.88;;;2.00;;
10667;SDS011;5382;42.136;24.796;2024-01-30T00:14:14;2.75;;;2.00;;
10667;SDS011;5382;42.136;24.796;2024-01-30T00:16:41;2.60;;;2.00;;
10667;SDS011;5382;42.136;24.796;2024-01-30T00:19:08;3.35;;;2.20;;
10667;SDS011;5382;42.136;24.796;2024-01-30T00:21:35;3.67;;;1.90;;
10667;SDS011;5382;42.136;24.796;2024-01-30T00:24:02;1.70;;;1.60;;
10667;SDS011;5382;42.136;24.796;2024-01-30T00:26:30;3.92;;;2.50;;
10667;SDS011;5382;42.136;24.796;2024-01-30T00:28:57;2.88;;;2.22;;
10667;SDS011;5382;42.136;24.796;2024-01-30T00:31:25;2.85;;;2.03;;
10667;SDS011;5382;42.136;24.796;2024-01-30T00:33:51;4.80;;;2.20;;
10667;SDS011;5382;42.136;24.796;2024-01-30T00:36:18;4.78;;;2.35;;
10667;SDS011;5382;42.136;24.796;2024-01-30T00:38:45;4.43;;;2.42;;
10667;SDS011;5382;42.136;24.796;2024-01-30T00:41:12;3.13;;;2.47;;
10667;SDS011;5382;42.136;24.796;2024-01-30T00:43:42;3.33;;;2.42;;
10667;SDS011;5382;42.136;24.796;2024-01-30T00:46:09;2.92;;;2.47;;
10667;SDS011;5382;42.136;24.796;2024-01-30T00:48:36;4.13;;;2.30;;
10667;SDS011;5382;42.136;24.796;2024-01-30T00:51:03;3.78;;;2.53;;
10667;SDS011;5382;42.136;24.796;2024-01-30T00:53:30;2.63;;;2.20;;
10667;SDS011;5382;42.136;24.796;2024-01-30T00:55:57;4.07;;;2.50;;
10667;SDS011;5382;42.136;24.796;2024-01-30T00:58:24;3.45;;;2.45;;
10667;SDS011;5382;42.136;24.796;2024-01-30T01:00:52;3.08;;;2.30;;
10667;SDS011;5382;42.136;24.796;2024-01-30T01:03:19;4.10;;;3.70;;
10667;SDS011;5382;42.136;24.796;2024-01-30T01:05:46;4.70;;;2.55;;
10667;SDS011;5382;42.136;24.796;2024-01-30T01:08:13;6.22;;;2.55;;
10667;SDS011;5382;42.136;24.796;2024-01-30T01:10:40;3.53;;;2.50;;
10667;SDS011;5382;42.136;24.796;2024-01-30T01:13:07;4.45;;;2.40;;
10667;SDS011;5382;42.136;24.796;2024-01-30T01:15:34;4.93;;;2.75;;
10667;SDS011;5382;42.136;24.796;2024-01-30T01:18:03;3.15;;;2.50;;
10667;SDS011;5382;42.136;24.796;2024-01-30T01:20:31;3.65;;;2.33;;
10667;SDS011;5382;42.136;24.796;2024-01-30T01:22:58;4.07;;;2.58;;
10667;SDS011;5382;42.136;24.796;2024-01-30T01:25:24;3.67;;;2.05;;
10667;SDS011;5382;42.136;24.796;2024-01-30T01:27:51;4.95;;;2.95;;
10667;SDS011;5382;42.136;24.796;2024-01-30T01:30:18;3.33;;;2.22;;
10667;SDS011;5382;42.136;24.796;2024-01-30T01:32:47;3.60;;;2.90;;
10667;SDS011;5382;42.136;24.796;2024-01-30T01:35:22;4.18;;;2.97;;
10667;SDS011;5382;42.136;24.796;2024-01-30T01:37:50;3.53;;;2.88;;
10667;SDS011;5382;42.136;24.796;2024-01-30T01:40:20;3.20;;;2.70;;
10667;SDS011;5382;42.136;24.796;2024-01-30T01:42:49;4.20;;;3.00;;
10667;SDS011;5382;42.136;24.796;2024-01-30T01:45:17;5.20;;;2.75;;
10667;SDS011;5382;42.136;24.796;2024-01-30T01:47:44;4.55;;;2.95;;
10667;SDS011;5382;42.136;24.796;2024-01-30T01:50:15;3.28;;;2.53;;
10667;SDS011;5382;42.136;24.796;2024-01-30T01:52:45;4.25;;;2.72;;
10667;SDS011;5382;42.136;24.796;2024-01-30T01:55:14;4.63;;;2.70;;
10667;SDS011;5382;42.136;24.796;2024-01-30T01:57:42;2.95;;;2.65;;
10667;SDS011;5382;42.136;24.796;2024-01-30T02:00:10;5.97;;;3.47;;
10667;SDS011;5382;42.136;24.796;2024-01-30T02:02:38;5.53;;;4.07;;
10667;SDS011;5382;42.136;24.796;2024-01-30T02:05:06;4.90;;;3.50;;
10667;SDS011;5382;42.136;24.796;2024-01-30T02:07:34;6.03;;;3.65;;
10667;SDS011;5382;42.136;24.796;2024-01-30T02:10:03;6.43;;;3.90;;
10667;SDS011;5382;42.136;24.796;2024-01-30T02:12:30;6.57;;;3.75;;
10667;SDS011;5382;42.136;24.796;2024-01-30T02:14:57;7.05;;;5.63;;
10667;SDS011;5382;42.136;24.796;2024-01-30T02:17:24;6.65;;;5.68;;
10667;SDS011;5382;42.136;24.796;2024-01-30T02:19:51;7.75;;;5.93;;
10667;SDS011;5382;42.136;24.796;2024-01-30T02:22:20;8.10;;;6.18;;
10667;SDS011;5382;42.136;24.796;2024-01-30T02:24:48;9.57;;;5.72;;
10667;SDS011;5382;42.136;24.796;2024-01-30T02:27:15;8.55;;;6.25;;
10667;SDS011;5382;42.136;24.796;2024-01-30T02:29:42;6.95;;;4.38;;
10667;SDS011;5382;42.136;24.796;2024-01-30T02:32:09;8.35;;;5.90;;
10667;SDS011;5382;42.136;24.796;2024-01-30T02:34:36;7.15;;;3.90;;
10667;SDS011;5382;42.136;24.796;2024-01-30T02:37:03;5.35;;;4.00;;
10667;SDS011;5382;42.136;24.796;2024-01-30T02:39:31;6.30;;;4.38;;
10667;SDS011;5382;42.136;24.796;2024-01-30T02:41:58;9.23;;;4.82;;
10667;SDS011;5382;42.136;24.796;2024-01-30T02:44:25;9.98;;;7.25;;
10667;SDS011;5382;42.136;24.796;2024-01-30T02:46:52;7.70;;;4.38;;
10667;SDS011;5382;42.136;24.796;2024-01-30T02:49:20;8.13;;;5.00;;
10667;SDS011;5382;42.136;24.796;2024-01-30T02:51:47;8.95;;;7.45;;
10667;SDS011;5382;42.136;24.796;2024-01-30T02:54:14;9.30;;;7.03;;
10667;SDS011;5382;42.136;24.796;2024-01-30T02:56:42;11.18;;;4.82;;
10667;SDS011;5382;42.136;24.796;2024-01-30T02:59:09;7.03;;;4.50;;
10667;SDS011;5382;42.136;24.796;2024-01-30T03:01:42;7.50;;;4.38;;
10667;SDS011;5382;42.136;24.796;2024-01-30T03:04:09;6.00;;;4.05;;
10667;SDS011;5382;42.136;24.796;2024-01-30T03:06:36;5.53;;;4.03;;
10667;SDS011;5382;42.136;24.796;2024-01-30T03:09:03;5.63;;;4.25;;
10667;SDS011;5382;42.136;24.796;2024-01-30T03:11:30;8.15;;;6.43;;
10667;SDS011;5382;42.136;24.796;2024-01-30T03:13:59;7.25;;;5.80;;
10667;SDS011;5382;42.136;24.796;2024-01-30T03:16:26;4.70;;;3.92;;
10667;SDS011;5382;42.136;24.796;2024-01-30T03:18:53;9.30;;;3.75;;
10667;SDS011;5382;42.136;24.796;2024-01-30T03:21:20;6.03;;;4.00;;
10667;SDS011;5382;42.136;24.796;2024-01-30T03:23:46;11.20;;;4.70;;
10667;SDS011;5382;42.136;24.796;2024-01-30T03:26:13;9.77;;;4.60;;
10667;SDS011;5382;42.136;24.796;2024-01-30T03:28:41;6.00;;;3.40;;
10667;SDS011;5382;42.136;24.796;2024-01-30T03:31:09;6.63;;;3.10;;
10667;SDS011;5382;42.136;24.796;2024-01-30T03:33:36;3.67;;;2.97;;
10667;SDS011;5382;42.136;24.796;2024-01-30T03:36:04;5.15;;;3.40;;
10667;SDS011;5382;42.136;24.796;2024-01-30T03:38:32;8.43;;;6.38;;
10667;SDS011;5382;42.136;24.796;2024-01-30T03:40:59;8.57;;;6.03;;
10667;SDS011;5382;42.136;24.796;2024-01-30T03:43:26;4.93;;;3.70;;
10667;SDS011;5382;42.136;24.796;2024-01-30T03:45:53;6.88;;;4.13;;
10667;SDS011;5382;42.136;24.796;2024-01-30T03:48:21;7.32;;;3.90;;
10667;SDS011;5382;42.136;24.796;2024-01-30T03:50:48;7.93;;;3.90;;
10667;SDS011;5382;42.136;24.796;2024-01-30T03:53:15;8.80;;;6.40;;
10667;SDS011;5382;42.136;24.796;2024-01-30T03:58:28;7.72;;;4.40;;
10667;SDS011;5382;42.136;24.796;2024-01-30T04:00:55;6.20;;;4.40;;
10667;SDS011;5382;42.136;24.796;2024-01-30T04:03:23;7.65;;;4.28;;
10667;SDS011;5382;42.136;24.796;2024-01-30T04:05:51;6.07;;;3.80;;
10667;SDS011;5382;42.136;24.796;2024-01-30T04:08:18;12.18;;;5.70;;
10667;SDS011;5382;42.136;24.796;2024-01-30T04:10:45;9.57;;;5.40;;
10667;SDS011;5382;42.136;24.796;2024-01-30T04:13:12;7.20;;;5.05;;
10667;SDS011;5382;42.136;24.796;2024-01-30T04:15:39;8.02;;;5.32;;
10667;SDS011;5382;42.136;24.796;2024-01-30T04:18:06;9.93;;;5.10;;
10667;SDS011;5382;42.136;24.796;2024-01-30T04:20:35;12.45;;;5.80;;
10667;SDS011;5382;42.136;24.796;2024-01-30T04:23:02;10.48;;;5.60;;
10667;SDS011;5382;42.136;24.796;2024-01-30T04:25:29;6.53;;;4.68;;
10667;SDS011;5382;42.136;24.796;2024-01-30T04:27:56;8.10;;;4.80;;
10667;SDS011;5382;42.136;24.796;2024-01-30T04:30:22;8.15;;;4.38;;
10667;SDS011;5382;42.136;24.796;2024-01-30T04:32:49;10.07;;;4.82;;
10667;SDS011;5382;42.136;24.796;2024-01-30T04:35:16;11.15;;;7.85;;
10667;SDS011;5382;42.136;24.796;2024-01-30T04:37:47;11.60;;;5.63;;
10667;SDS011;5382;42.136;24.796;2024-01-30T04:40:14;10.50;;;5.50;;
10667;SDS011;5382;42.136;24.796;2024-01-30T04:42:41;8.45;;;5.15;;
10667;SDS011;5382;42.136;24.796;2024-01-30T04:45:08;8.20;;;5.18;;
10667;SDS011;5382;42.136;24.796;2024-01-30T04:47:35;8.38;;;5.38;;
10667;SDS011;5382;42.136;24.796;2024-01-30T04:50:02;5.75;;;4.03;;
10667;SDS011;5382;42.136;24.796;2024-01-30T04:52:30;7.82;;;4.68;;
10667;SDS011;5382;42.136;24.796;2024-01-30T04:54:59;9.85;;;4.97;;
10667;SDS011;5382;42.136;24.796;2024-01-30T04:57:26;9.27;;;7.15;;
10667;SDS011;5382;42.136;24.796;2024-01-30T04:59:53;9.02;;;7.03;;
10667;SDS011;5382;42.136;24.796;2024-01-30T05:02:20;6.07;;;3.75;;
10667;SDS011;5382;42.136;24.796;2024-01-30T05:04:46;6.90;;;4.95;;
10667;SDS011;5382;42.136;24.796;2024-01-30T05:07:13;9.50;;;4.53;;
10667;SDS011;5382;42.136;24.796;2024-01-30T05:09:40;9.38;;;4.43;;
10667;SDS011;5382;42.136;24.796;2024-01-30T05:12:09;8.23;;;4.70;;
10667;SDS011;5382;42.136;24.796;2024-01-30T05:14:36;7.43;;;4.60;;
10667;SDS011;5382;42.136;24.796;2024-01-30T05:17:03;6.32;;;4.30;;
10667;SDS011;5382;42.136;24.796;2024-01-30T05:19:30;7.07;;;4.60;;
10667;SDS011;5382;42.136;24.796;2024-01-30T05:21:57;9.45;;;4.60;;
10667;SDS011;5382;42.136;24.796;2024-01-30T05:24:24;7.43;;;4.47;;
10667;SDS011;5382;42.136;24.796;2024-01-30T05:26:51;8.27;;;4.43;;
10667;SDS011;5382;42.136;24.796;2024-01-30T05:29:19;11.98;;;6.60;;
10667;SDS011;5382;42.136;24.796;2024-01-30T05:31:47;11.18;;;7.05;;
10667;SDS011;5382;42.136;24.796;2024-01-30T05:34:14;6.18;;;4.20;;
10667;SDS011;5382;42.136;24.796;2024-01-30T05:36:41;8.07;;;3.90;;
10667;SDS011;5382;42.136;24.796;2024-01-30T05:39:08;7.68;;;4.53;;
10667;SDS011;5382;42.136;24.796;2024-01-30T05:41:35;7.63;;;3.95;;
10667;SDS011;5382;42.136;24.796;2024-01-30T05:44:02;8.98;;;4.80;;
10667;SDS011;5382;42.136;24.796;2024-01-30T05:46:31;8.43;;;4.63;;
10667;SDS011;5382;42.136;24.796;2024-01-30T05:48:58;6.57;;;3.85;;
10667;SDS011;5382;42.136;24.796;2024-01-30T05:51:25;5.25;;;3.70;;
10667;SDS011;5382;42.136;24.796;2024-01-30T05:53:53;9.15;;;4.88;;
10667;SDS011;5382;42.136;24.796;2024-01-30T05:56:20;8.80;;;5.22;;
10667;SDS011;5382;42.136;24.796;2024-01-30T05:58:47;15.38;;;8.30;;
10667;SDS011;5382;42.136;24.796;2024-01-30T06:01:15;15.13;;;8.25;;
10667;SDS011;5382;42.136;24.796;2024-01-30T06:03:43;15.65;;;8.23;;
10667;SDS011;5382;42.136;24.796;2024-01-30T06:06:10;6.30;;;4.03;;
10667;SDS011;5382;42.136;24.796;2024-01-30T06:08:37;8.40;;;4.80;;
10667;SDS011;5382;42.136;24.796;2024-01-30T06:11:04;8.48;;;5.30;;
10667;SDS011;5382;42.136;24.796;2024-01-30T06:13:31;14.82;;;5.38;;
10667;SDS011;5382;42.136;24.796;2024-01-30T06:15:59;7.38;;;5.18;;
10667;SDS011;5382;42.136;24.796;2024-01-30T06:18:26;7.70;;;5.80;;
10667;SDS011;5382;42.136;24.796;2024-01-30T06:20:57;7.03;;;4.88;;
10667;SDS011;5382;42.136;24.796;2024-01-30T06:23:24;9.70;;;5.22;;
10667;SDS011;5382;42.136;24.796;2024-01-30T06:25:50;12.00;;;5.85;;
10667;SDS011;5382;42.136;24.796;2024-01-30T06:28:18;7.60;;;5.50;;
10667;SDS011;5382;42.136;24.796;2024-01-30T06:30:45;9.40;;;5.70;;
10667;SDS011;5382;42.136;24.796;2024-01-30T06:33:11;10.52;;;5.18;;
10667;SDS011;5382;42.136;24.796;2024-01-30T06:35:39;8.25;;;5.72;;
10667;SDS011;5382;42.136;24.796;2024-01-30T06:38:08;6.35;;;3.58;;
10667;SDS011;5382;42.136;24.796;2024-01-30T06:40:35;14.48;;;5.35;;
10667;SDS011;5382;42.136;24.796;2024-01-30T06:43:03;8.25;;;4.65;;
10667;SDS011;5382;42.136;24.796;2024-01-30T06:45:30;10.90;;;6.00;;
10667;SDS011;5382;42.136;24.796;2024-01-30T06:47:57;14.45;;;6.43;;
10667;SDS011;5382;42.136;24.796;2024-01-30T06:50:24;12.10;;;5.82;;
10667;SDS011;5382;42.136;24.796;2024-01-30T06:52:51;15.90;;;6.32;;
10667;SDS011;5382;42.136;24.796;2024-01-30T06:55:19;9.18;;;6.10;;
10667;SDS011;5382;42.136;24.796;2024-01-30T06:57:46;8.80;;;5.30;;
10667;SDS011;5382;42.136;24.796;2024-01-30T07:00:14;10.35;;;5.13;;
10667;SDS011;5382;42.136;24.796;2024-01-30T07:02:42;11.93;;;5.97;;
10667;SDS011;5382;42.136;24.796;2024-01-30T07:05:09;9.23;;;4.97;;
10667;SDS011;5382;42.136;24.796;2024-01-30T07:07:36;9.82;;;5.88;;
10667;SDS011;5382;42.136;24.796;2024-01-30T07:10:03;6.68;;;4.75;;
10667;SDS011;5382;42.136;24.796;2024-01-30T07:12:32;7.45;;;5.05;;
10667;SDS011;5382;42.136;24.796;2024-01-30T07:14:59;5.10;;;3.55;;
10667;SDS011;5382;42.136;24.796;2024-01-30T07:17:28;8.15;;;3.80;;
10667;SDS011;5382;42.136;24.796;2024-01-30T07:19:55;11.63;;;5.72;;
10667;SDS011;5382;42.136;24.796;2024-01-30T07:22:22;13.27;;;5.75;;
10667;SDS011;5382;42.136;24.796;2024-01-30T07:24:48;12.05;;;4.90;;
10667;SDS011;5382;42.136;24.796;2024-01-30T07:27:17;8.68;;;4.65;;
10667;SDS011;5382;42.136;24.796;2024-01-30T07:29:45;6.65;;;4.97;;
10667;SDS011;5382;42.136;24.796;2024-01-30T07:32:12;12.60;;;5.35;;
10667;SDS011;5382;42.136;24.796;2024-01-30T07:34:39;7.68;;;5.07;;
10667;SDS011;5382;42.136;24.796;2024-01-30T07:37:06;7.45;;;4.43;;
10667;SDS011;5382;42.136;24.796;2024-01-30T07:39:33;7.22;;;4.85;;
10667;SDS011;5382;42.136;24.796;2024-01-30T07:42:01;5.38;;;3.90;;
10667;SDS011;5382;42.136;24.796;2024-01-30T07:44:28;8.25;;;3.47;;
10667;SDS011;5382;42.136;24.796;2024-01-30T07:46:56;11.98;;;4.20;;
10667;SDS011;5382;42.136;24.796;2024-01-30T07:49:24;6.18;;;4.60;;
10667;SDS011;5382;42.136;24.796;2024-01-30T07:51:51;6.75;;;3.47;;
10667;SDS011;5382;42.136;24.796;2024-01-30T07:54:18;3.60;;;2.78;;
10667;SDS011;5382;42.136;24.796;2024-01-30T07:56:45;6.93;;;4.85;;
10667;SDS011;5382;42.136;24.796;2024-01-30T07:59:12;5.68;;;3.83;;
10667;SDS011;5382;42.136;24.796;2024-01-30T08:01:39;5.68;;;4.32;;
10667;SDS011;5382;42.136;24.796;2024-01-30T08:04:07;11.27;;;4.88;;
10667;SDS011;5382;42.136;24.796;2024-01-30T08:06:34;9.23;;;4.53;;
10667;SDS011;5382;42.136;24.796;2024-01-30T08:09:01;12.52;;;4.40;;
10667;SDS011;5382;42.136;24.796;2024-01-30T08:11:29;6.60;;;3.33;;
10667;SDS011;5382;42.136;24.796;2024-01-30T08:13:56;8.70;;;5.80;;
10667;SDS011;5382;42.136;24.796;2024-01-30T08:16:23;7.53;;;4.97;;
10667;SDS011;5382;42.136;24.796;2024-01-30T08:18:50;6.78;;;4.13;;
10667;SDS011;5382;42.136;24.796;2024-01-30T08:21:22;6.47;;;4.30;;
10667;SDS011;5382;42.136;24.796;2024-01-30T08:23:49;6.93;;;4.30;;
10667;SDS011;5382;42.136;24.796;2024-01-30T08:26:16;8.82;;;5.18;;
10667;SDS011;5382;42.136;24.796;2024-01-30T08:28:43;5.65;;;3.70;;
10667;SDS011;5382;42.136;24.796;2024-01-30T08:31:10;6.13;;;3.50;;
10667;SDS011;5382;42.136;24.796;2024-01-30T08:33:37;9.40;;;3.65;;
10667;SDS011;5382;42.136;24.796;2024-01-30T08:36:04;5.50;;;3.38;;
10667;SDS011;5382;42.136;24.796;2024-01-30T08:38:33;11.70;;;3.97;;
10667;SDS011;5382;42.136;24.796;2024-01-30T08:41:00;6.88;;;2.90;;
10667;SDS011;5382;42.136;24.796;2024-01-30T08:43:28;4.35;;;1.65;;
10667;SDS011;5382;42.136;24.796;2024-01-30T08:45:55;7.10;;;3.90;;
10667;SDS011;5382;42.136;24.796;2024-01-30T08:48:22;5.25;;;2.63;;
10667;SDS011;5382;42.136;24.796;2024-01-30T08:50:50;5.95;;;2.78;;
10667;SDS011;5382;42.136;24.796;2024-01-30T08:53:17;5.22;;;2.95;;
10667;SDS011;5382;42.136;24.796;2024-01-30T08:55:45;4.68;;;3.70;;
10667;SDS011;5382;42.136;24.796;2024-01-30T08:58:12;3.65;;;2.47;;
10667;SDS011;5382;42.136;24.796;2024-01-30T09:00:40;4.93;;;2.97;;
10667;SDS011;5382;42.136;24.796;2024-01-30T09:03:07;3.17;;;2.13;;
10667;SDS011;5382;42.136;24.796;2024-01-30T09:05:34;7.05;;;4.32;;
10667;SDS011;5382;42.136;24.796;2024-01-30T09:08:01;4.82;;;3.38;;
10667;SDS011;5382;42.136;24.796;2024-01-30T09:10:28;2.95;;;2.50;;
10667;SDS011;5382;42.136;24.796;2024-01-30T09:12:56;4.63;;;3.00;;
10667;SDS011;5382;42.136;24.796;2024-01-30T09:15:23;4.30;;;3.15;;
10667;SDS011;5382;42.136;24.796;2024-01-30T09:17:50;7.25;;;3.85;;
10667;SDS011;5382;42.136;24.796;2024-01-30T09:20:18;7.43;;;2.90;;
10667;SDS011;5382;42.136;24.796;2024-01-30T09:22:47;3.80;;;2.75;;
10667;SDS011;5382;42.136;24.796;2024-01-30T09:25:14;3.53;;;2.22;;
10667;SDS011;5382;42.136;24.796;2024-01-30T09:27:41;5.45;;;3.42;;
10667;SDS011;5382;42.136;24.796;2024-01-30T09:30:10;4.28;;;2.47;;
10667;SDS011;5382;42.136;24.796;2024-01-30T09:32:39;5.75;;;3.10;;
10667;SDS011;5382;42.136;24.796;2024-01-30T09:35:06;4.72;;;3.13;;
10667;SDS011;5382;42.136;24.796;2024-01-30T09:37:33;4.93;;;2.97;;
10667;SDS011;5382;42.136;24.796;2024-01-30T09:40:00;3.75;;;2.65;;
10667;SDS011;5382;42.136;24.796;2024-01-30T09:42:28;3.40;;;2.85;;
10667;SDS011;5382;42.136;24.796;2024-01-30T09:45:01;5.30;;;2.75;;
10667;SDS011;5382;42.136;24.796;2024-01-30T09:47:29;5.55;;;3.60;;
10667;SDS011;5382;42.136;24.796;2024-01-30T09:49:58;6.25;;;3.17;;
10667;SDS011;5382;42.136;24.796;2024-01-30T09:52:25;5.30;;;3.10;;
10667;SDS011;5382;42.136;24.796;2024-01-30T09:54:52;9.27;;;3.47;;
10667;SDS011;5382;42.136;24.796;2024-01-30T09:57:19;8.48;;;3.60;;
10667;SDS011;5382;42.136;24.796;2024-01-30T09:59:47;5.38;;;3.97;;
10667;SDS011;5382;42.136;24.796;2024-01-30T10:02:16;7.38;;;4.40;;
10667;SDS011;5382;42.136;24.796;2024-01-30T10:04:47;7.68;;;3.05;;
10667;SDS011;5382;42.136;24.796;2024-01-30T10:07:15;9.07;;;5.05;;
10667;SDS011;5382;42.136;24.796;2024-01-30T10:09:42;6.43;;;3.80;;
10667;SDS011;5382;42.136;24.796;2024-01-30T10:12:09;5.93;;;3.42;;
10667;SDS011;5382;42.136;24.796;2024-01-30T10:14:37;8.93;;;3.58;;
10667;SDS011;5382;42.136;24.796;2024-01-30T10:17:05;8.40;;;3.55;;
10667;SDS011;5382;42.136;24.796;2024-01-30T10:19:33;6.43;;;3.90;;
10667;SDS011;5382;42.136;24.796;2024-01-30T10:22:02;5.45;;;3.92;;
10667;SDS011;5382;42.136;24.796;2024-01-30T10:24:29;6.32;;;3.40;;
10667;SDS011;5382;42.136;24.796;2024-01-30T10:26:57;8.48;;;3.85;;
10667;SDS011;5382;42.136;24.796;2024-01-30T10:29:24;10.80;;;3.78;;
10667;SDS011;5382;42.136;24.796;2024-01-30T10:31:57;9.07;;;5.73;;
10667;SDS011;5382;42.136;24.796;2024-01-30T10:34:25;7.82;;;4.50;;
10667;SDS011;5382;42.136;24.796;2024-01-30T10:36:56;5.40;;;4.22;;
10667;SDS011;5382;42.136;24.796;2024-01-30T10:39:29;8.77;;;3.88;;
10667;SDS011;5382;42.136;24.796;2024-01-30T10:41:59;8.18;;;3.65;;
10667;SDS011;5382;42.136;24.796;2024-01-30T10:44:33;8.27;;;5.50;;
10667;SDS011;5382;42.136;24.796;2024-01-30T10:47:03;7.63;;;4.90;;
10667;SDS011;5382;42.136;24.796;2024-01-30T10:49:36;6.63;;;4.75;;
10667;SDS011;5382;42.136;24.796;2024-01-30T10:52:03;6.30;;;4.05;;
10667;SDS011;5382;42.136;24.796;2024-01-30T10:54:33;6.53;;;4.35;;
10667;SDS011;5382;42.136;24.796;2024-01-30T10:57:03;9.05;;;7.80;;
10667;SDS011;5382;42.136;24.796;2024-01-30T10:59:30;3.60;;;3.15;;
10667;SDS011;5382;42.136;24.796;2024-01-30T11:01:59;4.45;;;3.45;;
10667;SDS011;5382;42.136;24.796;2024-01-30T11:04:26;9.73;;;4.35;;
10667;SDS011;5382;42.136;24.796;2024-01-30T11:06:53;7.13;;;4.75;;
10667;SDS011;5382;42.136;24.796;2024-01-30T11:09:21;8.00;;;3.58;;
10667;SDS011;5382;42.136;24.796;2024-01-30T11:11:50;5.63;;;3.55;;
10667;SDS011;5382;42.136;24.796;2024-01-30T11:14:22;6.82;;;4.20;;
10667;SDS011;5382;42.136;24.796;2024-01-30T11:16:50;6.38;;;4.30;;
10667;SDS011;5382;42.136;24.796;2024-01-30T11:19:22;8.60;;;4.40;;
10667;SDS011;5382;42.136;24.796;2024-01-30T11:21:51;5.53;;;3.72;;
10667;SDS011;5382;42.136;24.796;2024-01-30T11:24:20;4.80;;;3.80;;
10667;SDS011;5382;42.136;24.796;2024-01-30T11:26:55;4.43;;;3.30;;
10667;SDS011;5382;42.136;24.796;2024-01-30T11:29:24;4.38;;;3.85;;
10667;SDS011;5382;42.136;24.796;2024-01-30T11:31:51;4.57;;;3.90;;
10667;SDS011;5382;42.136;24.796;2024-01-30T11:34:19;6.50;;;4.22;;
10667;SDS011;5382;42.136;24.796;2024-01-30T11:36:51;7.97;;;3.40;;
10667;SDS011;5382;42.136;24.796;2024-01-30T11:39:24;3.78;;;3.00;;
10667;SDS011;5382;42.136;24.796;2024-01-30T11:41:53;5.18;;;3.50;;
10667;SDS011;5382;42.136;24.796;2024-01-30T11:44:21;3.88;;;2.72;;
10667;SDS011;5382;42.136;24.796;2024-01-30T11:46:48;4.65;;;3.17;;
10667;SDS011;5382;42.136;24.796;2024-01-30T11:49:17;4.22;;;3.17;;
10667;SDS011;5382;42.136;24.796;2024-01-30T11:51:45;4.75;;;3.40;;
10667;SDS011;5382;42.136;24.796;2024-01-30T11:54:13;5.93;;;3.10;;
10667;SDS011;5382;42.136;24.796;2024-01-30T11:56:41;3.13;;;2.25;;
10667;SDS011;5382;42.136;24.796;2024-01-30T11:59:10;7.28;;;3.67;;
10667;SDS011;5382;42.136;24.796;2024-01-30T12:01:37;6.10;;;4.53;;
10667;SDS011;5382;42.136;24.796;2024-01-30T12:04:04;4.45;;;3.90;;
10667;SDS011;5382;42.136;24.796;2024-01-30T12:06:34;5.40;;;4.57;;
10667;SDS011;5382;42.136;24.796;2024-01-30T12:09:01;4.35;;;3.92;;
10667;SDS011;5382;42.136;24.796;2024-01-30T12:11:30;2.45;;;2.25;;
10667;SDS011;5382;42.136;24.796;2024-01-30T12:13:57;3.40;;;3.05;;
10667;SDS011;5382;42.136;24.796;2024-01-30T12:16:26;3.53;;;2.72;;
10667;SDS011;5382;42.136;24.796;2024-01-30T12:18:59;3.25;;;2.80;;
10667;SDS011;5382;42.136;24.796;2024-01-30T12:21:27;3.33;;;1.98;;
10667;SDS011;5382;42.136;24.796;2024-01-30T12:23:55;2.63;;;2.42;;
10667;SDS011;5382;42.136;24.796;2024-01-30T12:26:25;3.97;;;2.78;;
10667;SDS011;5382;42.136;24.796;2024-01-30T12:28:54;4.32;;;2.90;;
10667;SDS011;5382;42.136;24.796;2024-01-30T12:31:27;3.13;;;2.92;;
10667;SDS011;5382;42.136;24.796;2024-01-30T12:33:54;3.67;;;3.22;;
10667;SDS011;5382;42.136;24.796;2024-01-30T12:36:21;3.80;;;2.60;;
10667;SDS011;5382;42.136;24.796;2024-01-30T12:38:49;3.42;;;2.67;;
10667;SDS011;5382;42.136;24.796;2024-01-30T12:41:16;3.67;;;2.80;;
10667;SDS011;5382;42.136;24.796;2024-01-30T12:43:44;3.30;;;2.92;;
10667;SDS011;5382;42.136;24.796;2024-01-30T12:46:12;3.95;;;3.20;;
10667;SDS011;5382;42.136;24.796;2024-01-30T12:48:41;3.05;;;2.75;;
10667;SDS011;5382;42.136;24.796;2024-01-30T12:51:08;5.97;;;3.25;;
10667;SDS011;5382;42.136;24.796;2024-01-30T12:53:35;3.85;;;2.65;;
10667;SDS011;5382;42.136;24.796;2024-01-30T12:56:02;5.88;;;2.78;;
10667;SDS011;5382;42.136;24.796;2024-01-30T12:58:47;3.40;;;2.63;;
10667;SDS011;5382;42.136;24.796;2024-01-30T13:01:14;6.50;;;2.97;;
10667;SDS011;5382;42.136;24.796;2024-01-30T13:03:43;4.15;;;2.72;;
10667;SDS011;5382;42.136;24.796;2024-01-30T13:06:10;3.08;;;2.50;;
10667;SDS011;5382;42.136;24.796;2024-01-30T13:08:37;3.92;;;2.95;;
10667;SDS011;5382;42.136;24.796;2024-01-30T13:11:04;3.50;;;3.20;;
10667;SDS011;5382;42.136;24.796;2024-01-30T13:13:31;3.97;;;3.10;;
10667;SDS011;5382;42.136;24.796;2024-01-30T13:15:58;3.78;;;3.33;;
10667;SDS011;5382;42.136;24.796;2024-01-30T13:18:25;3.75;;;3.00;;
10667;SDS011;5382;42.136;24.796;2024-01-30T13:20:53;5.97;;;3.35;;
10667;SDS011;5382;42.136;24.796;2024-01-30T13:23:20;4.57;;;2.80;;
10667;SDS011;5382;42.136;24.796;2024-01-30T13:25:47;4.78;;;3.15;;
10667;SDS011;5382;42.136;24.796;2024-01-30T13:28:14;3.58;;;2.67;;
10667;SDS011;5382;42.136;24.796;2024-01-30T13:30:41;5.00;;;3.88;;
10667;SDS011;5382;42.136;24.796;2024-01-30T13:33:08;5.10;;;3.65;;
10667;SDS011;5382;42.136;24.796;2024-01-30T13:35:34;4.85;;;3.15;;
10667;SDS011;5382;42.136;24.796;2024-01-30T13:38:02;3.45;;;2.75;;
10667;SDS011;5382;42.136;24.796;2024-01-30T13:40:29;3.80;;;2.67;;
10667;SDS011;5382;42.136;24.796;2024-01-30T13:42:56;3.58;;;3.10;;
10667;SDS011;5382;42.136;24.796;2024-01-30T13:45:23;2.97;;;2.20;;
10667;SDS011;5382;42.136;24.796;2024-01-30T13:47:50;2.70;;;2.25;;
10667;SDS011;5382;42.136;24.796;2024-01-30T13:53:04;3.38;;;2.65;;
10667;SDS011;5382;42.136;24.796;2024-01-30T13:55:31;5.75;;;4.18;;
10667;SDS011;5382;42.136;24.796;2024-01-30T13:57:58;5.10;;;2.72;;
10667;SDS011;5382;42.136;24.796;2024-01-30T14:00:26;5.28;;;2.60;;
10667;SDS011;5382;42.136;24.796;2024-01-30T14:02:53;5.65;;;3.00;;
10667;SDS011;5382;42.136;24.796;2024-01-30T14:05:21;7.78;;;3.30;;
10667;SDS011;5382;42.136;24.796;2024-01-30T14:07:49;3.92;;;2.40;;
10667;SDS011;5382;42.136;24.796;2024-01-30T14:10:17;3.45;;;2.15;;
10667;SDS011;5382;42.136;24.796;2024-01-30T14:12:45;4.35;;;2.47;;
10667;SDS011;5382;42.136;24.796;2024-01-30T14:15:13;3.92;;;2.67;;
10667;SDS011;5382;42.136;24.796;2024-01-30T14:17:43;3.78;;;2.20;;
10667;SDS011;5382;42.136;24.796;2024-01-30T14:20:10;3.03;;;2.55;;
10667;SDS011;5382;42.136;24.796;2024-01-30T14:22:37;4.55;;;3.50;;
10667;SDS011;5382;42.136;24.796;2024-01-30T14:25:04;6.72;;;2.70;;
10667;SDS011;5382;42.136;24.796;2024-01-30T14:27:34;7.47;;;2.40;;
10667;SDS011;5382;42.136;24.796;2024-01-30T14:30:01;3.50;;;2.35;;
10667;SDS011;5382;42.136;24.796;2024-01-30T14:32:29;3.95;;;3.03;;
10667;SDS011;5382;42.136;24.796;2024-01-30T14:34:56;9.57;;;2.95;;
10667;SDS011;5382;42.136;24.796;2024-01-30T14:37:23;4.75;;;2.55;;
10667;SDS011;5382;42.136;24.796;2024-01-30T14:39:50;4.63;;;2.70;;
10667;SDS011;5382;42.136;24.796;2024-01-30T14:42:17;7.10;;;2.42;;
10667;SDS011;5382;42.136;24.796;2024-01-30T14:44:45;3.50;;;2.75;;
10667;SDS011;5382;42.136;24.796;2024-01-30T14:47:12;5.03;;;3.08;;
10667;SDS011;5382;42.136;24.796;2024-01-30T14:49:39;3.80;;;2.95;;
10667;SDS011;5382;42.136;24.796;2024-01-30T14:52:06;4.22;;;2.55;;
10667;SDS011;5382;42.136;24.796;2024-01-30T14:54:36;9.45;;;2.67;;